createdAt,value
2022-07-30T00:13:30.162Z,19.25
2022-07-30T00:28:35.702Z,18.94
2022-07-30T00:43:41.206Z,18.75
2022-07-30T00:58:46.703Z,18.75
2022-07-30T01:13:52.608Z,18.69
2022-07-30T01:28:58.995Z,18.56
2022-07-30T01:44:05.148Z,18.44
2022-07-30T01:59:13.367Z,18.38
2022-07-30T02:14:23.911Z,18.19
2022-07-30T02:29:30.385Z,18.13
2022-07-30T02:44:38.754Z,18.00
2022-07-30T02:59:45.300Z,17.75
2022-07-30T03:14:50.829Z,17.63
2022-07-30T03:29:57.135Z,17.69
2022-07-30T03:45:04.583Z,17.50
2022-07-30T04:00:15.518Z,17.44
2022-07-30T04:16:37.947Z,17.44
2022-07-30T04:30:47.367Z,17.38
2022-07-30T04:45:52.837Z,17.31
2022-07-30T05:01:00.433Z,17.44
2022-07-30T05:16:06.506Z,17.69
2022-07-30T05:31:12.068Z,18.13
2022-07-30T05:46:18.751Z,18.50
2022-07-30T06:01:24.459Z,18.88
2022-07-30T06:16:31.216Z,19.44
2022-07-30T06:31:38.520Z,20.00
2022-07-30T06:46:44.337Z,20.50
2022-07-30T07:01:50.713Z,21.06
2022-07-30T07:16:56.328Z,21.81
2022-07-30T07:32:06.410Z,22.06
2022-07-30T07:47:13.455Z,22.56
2022-07-30T08:02:18.995Z,23.13
2022-07-30T08:17:24.702Z,23.50
2022-07-30T08:32:30.191Z,24.25
2022-07-30T08:47:36.235Z,24.69
2022-07-30T09:02:41.778Z,25.31
2022-07-30T09:17:52.570Z,25.69
2022-07-30T09:32:59.997Z,25.94
2022-07-30T09:48:23.042Z,25.75
2022-07-30T10:03:33.556Z,25.31
2022-07-30T10:18:42.515Z,25.13
2022-07-30T10:33:50.192Z,25.75
2022-07-30T10:48:57.645Z,26.38
2022-07-30T11:04:21.699Z,25.25
2022-07-30T11:19:53.322Z,25.00
2022-07-30T11:35:18.161Z,24.31
2022-07-30T11:50:26.160Z,25.13
2022-07-30T12:05:31.781Z,26.56
2022-07-30T12:20:37.312Z,25.88
2022-07-30T12:35:46.888Z,27.13
2022-07-30T12:51:07.122Z,26.38
2022-07-30T13:06:18.232Z,25.56
2022-07-30T13:21:24.799Z,25.81
2022-07-30T13:36:30.275Z,25.31
2022-07-30T13:51:35.771Z,25.00
2022-07-30T14:06:41.694Z,24.69
2022-07-30T14:21:47.620Z,24.94
2022-07-30T14:36:53.134Z,25.25
2022-07-30T14:51:58.931Z,25.00
2022-07-30T15:07:04.536Z,25.06
2022-07-30T15:22:12.359Z,24.81
2022-07-30T15:37:17.904Z,24.19
2022-07-30T15:52:23.942Z,24.00
2022-07-30T16:07:29.468Z,23.69
2022-07-30T16:22:35.117Z,23.75
2022-07-30T16:37:40.616Z,23.69
2022-07-30T16:52:46.212Z,23.50
2022-07-30T17:07:51.712Z,23.44
2022-07-30T17:22:57.326Z,23.44
2022-07-30T17:38:02.716Z,23.44
2022-07-30T17:53:08.185Z,23.31
2022-07-30T18:08:13.550Z,22.44
2022-07-30T18:23:19.458Z,22.50
2022-07-30T18:38:25.601Z,22.25
2022-07-30T18:53:33.537Z,22.00
2022-07-30T19:08:38.940Z,21.75
2022-07-30T19:23:44.419Z,21.69
2022-07-30T19:38:50.300Z,21.56
2022-07-30T19:53:55.645Z,21.44
2022-07-30T20:09:01.073Z,21.19
2022-07-30T20:24:08.296Z,20.88
2022-07-30T20:39:18.391Z,20.81
2022-07-30T20:54:26.048Z,20.63
2022-07-30T21:09:49.923Z,20.63
2022-07-30T21:24:57.063Z,20.44
2022-07-30T21:40:02.569Z,20.38
2022-07-30T21:55:09.690Z,20.19
2022-07-30T22:10:21.528Z,20.25
2022-07-30T22:25:39.664Z,20.19
2022-07-30T22:40:50.375Z,20.13
2022-07-30T22:55:56.279Z,19.88
2022-07-30T23:11:01.994Z,19.75
2022-07-30T23:26:08.660Z,19.56
2022-07-30T23:41:14.066Z,19.44
2022-07-30T23:56:36.069Z,19.38
